sensor_id;sensor_type;location;lat;lon;timestamp;pressure;altitude;pressure_sealevel;temperature;humidity
49813;BME280;35706;52.100;5.056;2022-11-23T00:00:36;99543.50;;;7.70;100.00
49813;BME280;35706;52.100;5.056;2022-11-23T00:01:36;99550.84;;;7.66;100.00
49813;BME280;35706;52.100;5.056;2022-11-23T00:02:37;99553.97;;;7.70;100.00
49813;BME280;35706;52.100;5.056;2022-11-23T00:03:37;99549.72;;;7.69;100.00
49813;BME280;35706;52.100;5.056;2022-11-23T00:04:38;99546.28;;;7.68;100.00
49813;BME280;35706;52.100;5.056;2022-11-23T00:05:38;99548.91;;;7.68;100.00
49813;BME280;35706;52.100;5.056;2022-11-23T00:06:39;99549.72;;;7.69;100.00
49813;BME280;35706;52.100;5.056;2022-11-23T00:07:39;99557.03;;;7.65;100.00
49813;BME280;35706;52.100;5.056;2022-11-23T00:08:40;99552.19;;;7.70;100.00
49813;BME280;35706;52.100;5.056;2022-11-23T00:09:40;99557.78;;;7.75;100.00
49813;BME280;35706;52.100;5.056;2022-11-23T00:10:41;99560.41;;;7.75;100.00
49813;BME280;35706;52.100;5.056;2022-11-23T00:11:42;99563.31;;;7.72;100.00
49813;BME280;35706;52.100;5.056;2022-11-23T00:12:42;99551.75;;;7.75;100.00
49813;BME280;35706;52.100;5.056;2022-11-23T00:13:43;99561.34;;;7.74;100.00
49813;BME280;35706;52.100;5.056;2022-11-23T00:14:44;99566.44;;;7.76;100.00
49813;BME280;35706;52.100;5.056;2022-11-23T00:15:44;99575.13;;;7.77;100.00
49813;BME280;35706;52.100;5.056;2022-11-23T00:16:44;99558.75;;;7.74;100.00
49813;BME280;35706;52.100;5.056;2022-11-23T00:17:47;99556.53;;;7.80;100.00
49813;BME280;35706;52.100;5.056;2022-11-23T00:18:47;99556.97;;;7.75;100.00
49813;BME280;35706;52.100;5.056;2022-11-23T00:19:50;99559.06;;;7.71;100.00
49813;BME280;35706;52.100;5.056;2022-11-23T00:20:50;99562.13;;;7.67;100.00
49813;BME280;35706;52.100;5.056;2022-11-23T00:21:50;99569.44;;;7.63;100.00
49813;BME280;35706;52.100;5.056;2022-11-23T00:22:51;99565.56;;;7.67;100.00
49813;BME280;35706;52.100;5.056;2022-11-23T00:23:51;99566.00;;;7.63;100.00
49813;BME280;35706;52.100;5.056;2022-11-23T00:24:52;99569.44;;;7.63;100.00
49813;BME280;35706;52.100;5.056;2022-11-23T00:25:52;99574.97;;;7.60;100.00
49813;BME280;35706;52.100;5.056;2022-11-23T00:26:52;99570.41;;;7.62;100.00
49813;BME280;35706;52.100;5.056;2022-11-23T00:27:52;99566.97;;;7.62;100.00
49813;BME280;35706;52.100;5.056;2022-11-23T00:28:53;99574.97;;;7.60;100.00
49813;BME280;35706;52.100;5.056;2022-11-23T00:29:53;99575.19;;;7.67;100.00
49813;BME280;35706;52.100;5.056;2022-11-23T00:30:53;99578.41;;;7.61;100.00
49813;BME280;35706;52.100;5.056;2022-11-23T00:31:53;99572.06;;;7.63;100.00
49813;BME280;35706;52.100;5.056;2022-11-23T00:32:54;99582.16;;;7.58;100.00
49813;BME280;35706;52.100;5.056;2022-11-23T00:33:55;99586.25;;;7.61;100.00
49813;BME280;35706;52.100;5.056;2022-11-23T00:34:56;99588.19;;;7.59;100.00
49813;BME280;35706;52.100;5.056;2022-11-23T00:36:08;99588.31;;;7.57;100.00
49813;BME280;35706;52.100;5.056;2022-11-23T00:37:09;99587.97;;;7.52;100.00
49813;BME280;35706;52.100;5.056;2022-11-23T00:38:10;99587.16;;;7.51;100.00
49813;BME280;35706;52.100;5.056;2022-11-23T00:39:10;99581.06;;;7.51;100.00
49813;BME280;35706;52.100;5.056;2022-11-23T00:40:11;99582.88;;;7.50;100.00
49813;BME280;35706;52.100;5.056;2022-11-23T00:41:13;99584.94;;;7.47;100.00
49813;BME280;35706;52.100;5.056;2022-11-23T00:42:14;99597.06;;;7.48;100.00
49813;BME280;35706;52.100;5.056;2022-11-23T00:43:14;99590.19;;;7.47;100.00
49813;BME280;35706;52.100;5.056;2022-11-23T00:44:15;99594.44;;;7.48;100.00
49813;BME280;35706;52.100;5.056;2022-11-23T00:45:15;99594.59;;;7.46;100.00
49813;BME280;35706;52.100;5.056;2022-11-23T00:46:16;99602.28;;;7.48;100.00
49813;BME280;35706;52.100;5.056;2022-11-23T00:47:17;99593.91;;;7.44;100.00
49813;BME280;35706;52.100;5.056;2022-11-23T00:48:17;99598.31;;;7.44;100.00
49813;BME280;35706;52.100;5.056;2022-11-23T00:49:17;99598.47;;;7.42;100.00
49813;BME280;35706;52.100;5.056;2022-11-23T00:50:18;99600.53;;;7.39;100.00
49813;BME280;35706;52.100;5.056;2022-11-23T00:51:24;99597.66;;;7.42;100.00
49813;BME280;35706;52.100;5.056;2022-11-23T00:52:24;99606.44;;;7.41;100.00
49813;BME280;35706;52.100;5.056;2022-11-23T00:53:25;99599.97;;;7.45;100.00
49813;BME280;35706;52.100;5.056;2022-11-23T00:54:25;99603.56;;;7.44;100.00
49813;BME280;35706;52.100;5.056;2022-11-23T00:55:25;99605.19;;;7.45;100.00
49813;BME280;35706;52.100;5.056;2022-11-23T00:56:27;99609.31;;;7.47;100.00
49813;BME280;35706;52.100;5.056;2022-11-23T00:57:27;99604.69;;;7.41;100.00
49813;BME280;35706;52.100;5.056;2022-11-23T00:58:27;99609.31;;;7.47;100.00
49813;BME280;35706;52.100;5.056;2022-11-23T00:59:28;99609.47;;;7.46;100.00
49813;BME280;35706;52.100;5.056;2022-11-23T01:00:28;99604.22;;;7.46;100.00
49813;BME280;35706;52.100;5.056;2022-11-23T01:01:31;99606.72;;;7.47;100.00
49813;BME280;35706;52.100;5.056;2022-11-23T01:02:34;99608.47;;;7.47;100.00
49813;BME280;35706;52.100;5.056;2022-11-23T01:03:37;99605.88;;;7.47;100.00
49813;BME280;35706;52.100;5.056;2022-11-23T01:04:38;99604.59;;;7.51;100.00
49813;BME280;35706;52.100;5.056;2022-11-23T01:05:38;99610.69;;;7.51;100.00
49813;BME280;35706;52.100;5.056;2022-11-23T01:06:39;99604.31;;;7.54;100.00
49813;BME280;35706;52.100;5.056;2022-11-23T01:07:39;99606.41;;;7.50;100.00
49813;BME280;35706;52.100;5.056;2022-11-23T01:08:40;99614.78;;;7.54;100.00
49813;BME280;35706;52.100;5.056;2022-11-23T01:09:40;99608.88;;;7.52;100.00
49813;BME280;35706;52.100;5.056;2022-11-23T01:10:40;99604.31;;;7.54;100.00
49813;BME280;35706;52.100;5.056;2022-11-23T01:11:41;99620.69;;;7.56;100.00
49813;BME280;35706;52.100;5.056;2022-11-23T01:12:41;99618.06;;;7.56;100.00
49813;BME280;35706;52.100;5.056;2022-11-23T01:13:41;99623.97;;;7.58;100.00
49813;BME280;35706;52.100;5.056;2022-11-23T01:14:42;99622.72;;;7.62;100.00
49813;BME280;35706;52.100;5.056;2022-11-23T01:15:49;99617.84;;;7.67;100.00
49813;BME280;35706;52.100;5.056;2022-11-23T01:16:50;99620.78;;;7.64;100.00
49813;BME280;35706;52.100;5.056;2022-11-23T01:17:50;99627.09;;;7.62;100.00
49813;BME280;35706;52.100;5.056;2022-11-23T01:19:06;99620.78;;;7.64;100.00
49813;BME280;35706;52.100;5.056;2022-11-23T01:20:07;99626.84;;;7.65;100.00
49813;BME280;35706;52.100;5.056;2022-11-23T01:21:08;99622.56;;;7.64;100.00
49813;BME280;35706;52.100;5.056;2022-11-23T01:22:08;99625.03;;;7.65;100.00
49813;BME280;35706;52.100;5.056;2022-11-23T01:23:08;99621.47;;;7.66;100.00
49813;BME280;35706;52.100;5.056;2022-11-23T01:24:19;99617.63;;;7.61;100.00
49813;BME280;35706;52.100;5.056;2022-11-23T01:25:20;99623.63;;;7.71;100.00
49813;BME280;35706;52.100;5.056;2022-11-23T01:26:20;99619.81;;;7.65;100.00
49813;BME280;35706;52.100;5.056;2022-11-23T01:27:21;99622.56;;;7.64;100.00
49813;BME280;35706;52.100;5.056;2022-11-23T01:28:21;99620.63;;;7.66;100.00
49813;BME280;35706;52.100;5.056;2022-11-23T01:29:22;99624.06;;;7.66;100.00
49813;BME280;35706;52.100;5.056;2022-11-23T01:30:23;99618.97;;;7.65;100.00
49813;BME280;35706;52.100;5.056;2022-11-23T01:31:24;99624.88;;;7.67;100.00
49813;BME280;35706;52.100;5.056;2022-11-23T01:32:25;99630.41;;;7.64;100.00
49813;BME280;35706;52.100;5.056;2022-11-23T01:33:25;99616.97;;;7.77;100.00
49813;BME280;35706;52.100;5.056;2022-11-23T01:34:25;99616.16;;;7.76;100.00
49813;BME280;35706;52.100;5.056;2022-11-23T01:35:26;99619.75;;;7.75;100.00
49813;BME280;35706;52.100;5.056;2022-11-23T01:36:29;99622.94;;;7.69;100.00
49813;BME280;35706;52.100;5.056;2022-11-23T01:37:30;99609.44;;;7.73;100.00
49813;BME280;35706;52.100;5.056;2022-11-23T01:38:31;99624.13;;;7.74;100.00
49813;BME280;35706;52.100;5.056;2022-11-23T01:39:31;99622.13;;;7.68;100.00
49813;BME280;35706;52.100;5.056;2022-11-23T01:40:39;99622.81;;;7.70;100.00
49813;BME280;35706;52.100;5.056;2022-11-23T01:41:42;99622.06;;;7.78;100.00
49813;BME280;35706;52.100;5.056;2022-11-23T01:43:51;99624.13;;;7.74;100.00
49813;BME280;35706;52.100;5.056;2022-11-23T01:46:31;99627.28;;;7.78;100.00
49813;BME280;35706;52.100;5.056;2022-11-23T01:47:33;99625.78;;;7.75;100.00
49813;BME280;35706;52.100;5.056;2022-11-23T01:48:44;99625.34;;;7.80;100.00
49813;BME280;35706;52.100;5.056;2022-11-23T01:49:49;99629.53;;;7.73;100.00
49813;BME280;35706;52.100;5.056;2022-11-23T01:50:52;99627.75;;;7.73;100.00
49813;BME280;35706;52.100;5.056;2022-11-23T01:51:56;99629.38;;;7.74;100.00
49813;BME280;35706;52.100;5.056;2022-11-23T01:52:58;99626.25;;;7.71;100.00
49813;BME280;35706;52.100;5.056;2022-11-23T01:54:09;99624.00;;;7.76;100.00
49813;BME280;35706;52.100;5.056;2022-11-23T01:55:10;99631.56;;;7.79;100.00
49813;BME280;35706;52.100;5.056;2022-11-23T01:56:14;99625.56;;;7.69;100.00
49813;BME280;35706;52.100;5.056;2022-11-23T01:57:19;99628.88;;;7.71;100.00
49813;BME280;35706;52.100;5.056;2022-11-23T01:58:22;99632.59;;;7.68;100.00
49813;BME280;35706;52.100;5.056;2022-11-23T01:59:25;99632.75;;;7.67;100.00
49813;BME280;35706;52.100;5.056;2022-11-23T02:00:27;99643.88;;;7.69;100.00
49813;BME280;35706;52.100;5.056;2022-11-23T02:01:28;99630.94;;;7.67;100.00
49813;BME280;35706;52.100;5.056;2022-11-23T02:02:30;99638.78;;;7.67;100.00
49813;BME280;35706;52.100;5.056;2022-11-23T02:03:33;99639.09;;;7.64;100.00
49813;BME280;35706;52.100;5.056;2022-11-23T02:04:36;99643.19;;;7.67;100.00
49813;BME280;35706;52.100;5.056;2022-11-23T02:06:00;99633.28;;;7.70;100.00
49813;BME280;35706;52.100;5.056;2022-11-23T02:07:02;99639.56;;;7.78;100.00
49813;BME280;35706;52.100;5.056;2022-11-23T02:08:04;99647.16;;;7.71;100.00
49813;BME280;35706;52.100;5.056;2022-11-23T02:09:05;99641.41;;;7.67;100.00
49813;BME280;35706;52.100;5.056;2022-11-23T02:10:07;99644.31;;;7.64;100.00
49813;BME280;35706;52.100;5.056;2022-11-23T02:11:08;99637.97;;;7.67;100.00
49813;BME280;35706;52.100;5.056;2022-11-23T02:12:10;99636.72;;;7.71;100.00
49813;BME280;35706;52.100;5.056;2022-11-23T02:13:12;99648.97;;;7.70;100.00
49813;BME280;35706;52.100;5.056;2022-11-23T02:14:13;99646.50;;;7.69;100.00
49813;BME280;35706;52.100;5.056;2022-11-23T02:15:13;99637.84;;;7.68;100.00
49813;BME280;35706;52.100;5.056;2022-11-23T02:16:15;99641.72;;;7.64;100.00
49813;BME280;35706;52.100;5.056;2022-11-23T02:17:15;99645.41;;;7.62;100.00
49813;BME280;35706;52.100;5.056;2022-11-23T02:18:18;99636.41;;;7.74;100.00
49813;BME280;35706;52.100;5.056;2022-11-23T02:20:32;99642.38;;;7.66;100.00
49813;BME280;35706;52.100;5.056;2022-11-23T02:21:32;99635.03;;;7.70;100.00
49813;BME280;35706;52.100;5.056;2022-11-23T02:24:11;99640.84;;;7.64;100.00
49813;BME280;35706;52.100;5.056;2022-11-23T02:25:38;99641.84;;;7.63;100.00
49813;BME280;35706;52.100;5.056;2022-11-23T02:26:40;99646.66;;;7.58;100.00
49813;BME280;35706;52.100;5.056;2022-11-23T02:27:41;99647.44;;;7.68;100.00
49813;BME280;35706;52.100;5.056;2022-11-23T02:28:47;99643.34;;;7.65;100.00
49813;BME280;35706;52.100;5.056;2022-11-23T02:29:49;99650.22;;;7.66;100.00
49813;BME280;35706;52.100;5.056;2022-11-23T02:30:53;99656.84;;;7.61;100.00
49813;BME280;35706;52.100;5.056;2022-11-23T02:31:54;99644.66;;;7.51;100.00
49813;BME280;35706;52.100;5.056;2022-11-23T02:32:55;99648.78;;;7.54;100.00
49813;BME280;35706;52.100;5.056;2022-11-23T02:33:55;99655.19;;;7.60;100.00
49813;BME280;35706;52.100;5.056;2022-11-23T02:34:55;99644.31;;;7.64;100.00
49813;BME280;35706;52.100;5.056;2022-11-23T02:35:58;99652.56;;;7.60;100.00
49813;BME280;35706;52.100;5.056;2022-11-23T02:36:59;99657.78;;;7.69;100.00
49813;BME280;35706;52.100;5.056;2022-11-23T02:38:01;99652.16;;;7.64;100.00
49813;BME280;35706;52.100;5.056;2022-11-23T02:39:16;99648.34;;;7.59;100.00
49813;BME280;35706;52.100;5.056;2022-11-23T02:40:34;99643.78;;;7.61;100.00
49813;BME280;35706;52.100;5.056;2022-11-23T02:41:36;99647.53;;;7.58;100.00
49813;BME280;35706;52.100;5.056;2022-11-23T02:42:37;99638.31;;;7.54;100.00
49813;BME280;35706;52.100;5.056;2022-11-23T02:43:38;99645.19;;;7.55;100.00
49813;BME280;35706;52.100;5.056;2022-11-23T02:46:02;99646.84;;;7.56;100.00
49813;BME280;35706;52.100;5.056;2022-11-23T02:47:04;99655.13;;;7.51;100.00
49813;BME280;35706;52.100;5.056;2022-11-23T02:48:05;99644.91;;;7.58;100.00
49813;BME280;35706;52.100;5.056;2022-11-23T02:49:06;99647.53;;;7.58;100.00
49813;BME280;35706;52.100;5.056;2022-11-23T02:50:06;99647.66;;;7.57;100.00
49813;BME280;35706;52.100;5.056;2022-11-23T02:51:07;99643.69;;;7.52;100.00
49813;BME280;35706;52.100;5.056;2022-11-23T02:52:08;99646.78;;;7.66;100.00
49813;BME280;35706;52.100;5.056;2022-11-23T02:53:08;99651.38;;;7.54;100.00
49813;BME280;35706;52.100;5.056;2022-11-23T02:54:09;99643.81;;;7.51;100.00
49813;BME280;35706;52.100;5.056;2022-11-23T02:55:09;99645.84;;;7.57;100.00
49813;BME280;35706;52.100;5.056;2022-11-23T02:56:10;99639.94;;;7.55;100.00
49813;BME280;35706;52.100;5.056;2022-11-23T02:57:10;99647.28;;;7.51;100.00
49813;BME280;35706;52.100;5.056;2022-11-23T02:58:10;99653.19;;;7.53;100.00
49813;BME280;35706;52.100;5.056;2022-11-23T02:59:11;99648.22;;;7.50;100.00
49813;BME280;35706;52.100;5.056;2022-11-23T03:00:12;99657.81;;;7.60;100.00
49813;BME280;35706;52.100;5.056;2022-11-23T03:01:12;99641.88;;;7.53;100.00
49813;BME280;35706;52.100;5.056;2022-11-23T03:02:12;99670.38;;;7.56;100.00
49813;BME280;35706;52.100;5.056;2022-11-23T03:03:13;99659.81;;;7.48;100.00
49813;BME280;35706;52.100;5.056;2022-11-23T03:04:14;99662.03;;;7.43;100.00
49813;BME280;35706;52.100;5.056;2022-11-23T03:05:14;99647.78;;;7.55;100.00
49813;BME280;35706;52.100;5.056;2022-11-23T03:06:14;99655.63;;;7.55;100.00
49813;BME280;35706;52.100;5.056;2022-11-23T03:07:15;99656.75;;;7.52;100.00
49813;BME280;35706;52.100;5.056;2022-11-23T03:08:15;99671.63;;;7.52;100.00
49813;BME280;35706;52.100;5.056;2022-11-23T03:09:15;99657.88;;;7.50;100.00
49813;BME280;35706;52.100;5.056;2022-11-23T03:10:16;99664.16;;;7.57;100.00
49813;BME280;35706;52.100;5.056;2022-11-23T03:11:17;99662.53;;;7.56;100.00
49813;BME280;35706;52.100;5.056;2022-11-23T03:12:17;99665.41;;;7.53;100.00
49813;BME280;35706;52.100;5.056;2022-11-23T03:13:18;99665.63;;;7.42;100.00
49813;BME280;35706;52.100;5.056;2022-11-23T03:14:18;99668.22;;;7.42;100.00
49813;BME280;35706;52.100;5.056;2022-11-23T03:15:18;99677.19;;;7.39;100.00
49813;BME280;35706;52.100;5.056;2022-11-23T03:16:19;99661.22;;;7.42;100.00
49813;BME280;35706;52.100;5.056;2022-11-23T03:17:19;99662.53;;;7.56;100.00
49813;BME280;35706;52.100;5.056;2022-11-23T03:18:19;99662.00;;;7.52;100.00
49813;BME280;35706;52.100;5.056;2022-11-23T03:19:20;99661.69;;;7.55;100.00
49813;BME280;35706;52.100;5.056;2022-11-23T03:20:20;99657.97;;;7.58;100.00
49813;BME280;35706;52.100;5.056;2022-11-23T03:21:20;99666.53;;;7.50;100.00
49813;BME280;35706;52.100;5.056;2022-11-23T03:22:21;99673.56;;;7.50;100.00
49813;BME280;35706;52.100;5.056;2022-11-23T03:23:21;99661.84;;;7.54;100.00
49813;BME280;35706;52.100;5.056;2022-11-23T03:24:21;99661.16;;;7.52;100.00
49813;BME280;35706;52.100;5.056;2022-11-23T03:25:21;99663.09;;;7.50;100.00
49813;BME280;35706;52.100;5.056;2022-11-23T03:26:22;99663.25;;;7.48;100.00
49813;BME280;35706;52.100;5.056;2022-11-23T03:27:22;99661.16;;;7.52;100.00
49813;BME280;35706;52.100;5.056;2022-11-23T03:28:23;99670.13;;;7.49;100.00
49813;BME280;35706;52.100;5.056;2022-11-23T03:29:24;99670.81;;;7.51;100.00
49813;BME280;35706;52.100;5.056;2022-11-23T03:30:25;99656.22;;;7.49;100.00
49813;BME280;35706;52.100;5.056;2022-11-23T03:31:25;99658.84;;;7.49;100.00
49813;BME280;35706;52.100;5.056;2022-11-23T03:32:26;99654.53;;;7.58;100.00
49813;BME280;35706;52.100;5.056;2022-11-23T03:33:26;99664.16;;;7.57;100.00
49813;BME280;35706;52.100;5.056;2022-11-23T03:34:26;99666.41;;;7.52;100.00
49813;BME280;35706;52.100;5.056;2022-11-23T03:35:26;99661.53;;;7.57;100.00
49813;BME280;35706;52.100;5.056;2022-11-23T03:36:27;99663.44;;;7.65;100.00
49813;BME280;35706;52.100;5.056;2022-11-23T03:37:27;99660.97;;;7.63;100.00
49813;BME280;35706;52.100;5.056;2022-11-23T03:38:27;99659.03;;;7.65;100.00
49813;BME280;35706;52.100;5.056;2022-11-23T03:39:28;99663.88;;;7.60;100.00
49813;BME280;35706;52.100;5.056;2022-11-23T03:40:28;99658.94;;;7.57;100.00
49813;BME280;35706;52.100;5.056;2022-11-23T03:41:28;99660.59;;;7.58;100.00
49813;BME280;35706;52.100;5.056;2022-11-23T03:42:28;99660.06;;;7.54;100.00
49813;BME280;35706;52.100;5.056;2022-11-23T03:43:29;99656.63;;;7.54;100.00
49813;BME280;35706;52.100;5.056;2022-11-23T03:44:29;99662.53;;;7.56;100.00
49813;BME280;35706;52.100;5.056;2022-11-23T03:45:29;99662.31;;;7.67;100.00
49813;BME280;35706;52.100;5.056;2022-11-23T03:46:30;99648.19;;;7.60;100.00
49813;BME280;35706;52.100;5.056;2022-11-23T03:47:30;99656.66;;;7.72;100.00
49813;BME280;35706;52.100;5.056;2022-11-23T03:48:30;99653.97;;;7.82;100.00
49813;BME280;35706;52.100;5.056;2022-11-23T03:49:30;99656.06;;;7.78;100.00
49813;BME280;35706;52.100;5.056;2022-11-23T03:50:31;99662.09;;;7.79;100.00
49813;BME280;35706;52.100;5.056;2022-11-23T03:51:31;99656.19;;;7.77;100.00
49813;BME280;35706;52.100;5.056;2022-11-23T03:52:31;99661.03;;;7.81;100.00
49813;BME280;35706;52.100;5.056;2022-11-23T03:53:32;99661.97;;;7.80;100.00
49813;BME280;35706;52.100;5.056;2022-11-23T03:54:32;99653.91;;;7.73;100.00
49813;BME280;35706;52.100;5.056;2022-11-23T03:55:32;99657.47;;;7.72;100.00
49813;BME280;35706;52.100;5.056;2022-11-23T03:56:33;99652.78;;;7.76;100.00
49813;BME280;35706;52.100;5.056;2022-11-23T03:57:33;99664.22;;;7.75;100.00
49813;BME280;35706;52.100;5.056;2022-11-23T03:58:34;99654.84;;;7.72;100.00
49813;BME280;35706;52.100;5.056;2022-11-23T03:59:34;99663.13;;;7.68;100.00
49813;BME280;35706;52.100;5.056;2022-11-23T04:00:34;99655.25;;;7.78;100.00
49813;BME280;35706;52.100;5.056;2022-11-23T04:01:34;99664.22;;;7.75;100.00
49813;BME280;35706;52.100;5.056;2022-11-23T04:02:35;99660.38;;;7.69;100.00
49813;BME280;35706;52.100;5.056;2022-11-23T04:03:35;99662.63;;;7.64;100.00
49813;BME280;35706;52.100;5.056;2022-11-23T04:04:36;99664.25;;;7.65;100.00
49813;BME280;35706;52.100;5.056;2022-11-23T04:05:36;99666.44;;;7.70;100.00
49813;BME280;35706;52.100;5.056;2022-11-23T04:06:36;99658.91;;;7.67;100.00
49813;BME280;35706;52.100;5.056;2022-11-23T04:07:36;99662.09;;;7.61;100.00
49813;BME280;35706;52.100;5.056;2022-11-23T04:08:37;99654.53;;;7.58;100.00
49813;BME280;35706;52.100;5.056;2022-11-23T04:09:37;99662.66;;;7.54;100.00
49813;BME280;35706;52.100;5.056;2022-11-23T04:10:37;99659.75;;;7.58;100.00
49813;BME280;35706;52.100;5.056;2022-11-23T04:11:38;99664.97;;;7.58;100.00
49813;BME280;35706;52.100;5.056;2022-11-23T04:12:38;99658.13;;;7.57;100.00
49813;BME280;35706;52.100;5.056;2022-11-23T04:13:38;99657.56;;;7.53;100.00
49813;BME280;35706;52.100;5.056;2022-11-23T04:14:38;99665.16;;;7.56;100.00
49813;BME280;35706;52.100;5.056;2022-11-23T04:15:39;99659.34;;;7.62;100.00
49813;BME280;35706;52.100;5.056;2022-11-23T04:16:39;99658.50;;;7.62;100.00
49813;BME280;35706;52.100;5.056;2022-11-23T04:17:39;99667.31;;;7.61;100.00
49813;BME280;35706;52.100;5.056;2022-11-23T04:18:39;99664.03;;;7.59;100.00
49813;BME280;35706;52.100;5.056;2022-11-23T04:19:40;99661.94;;;7.62;100.00
49813;BME280;35706;52.100;5.056;2022-11-23T04:20:40;99657.66;;;7.61;100.00
49813;BME280;35706;52.100;5.056;2022-11-23T04:21:40;99666.78;;;7.57;100.00
49813;BME280;35706;52.100;5.056;2022-11-23T04:22:40;99663.47;;;7.55;100.00
49813;BME280;35706;52.100;5.056;2022-11-23T04:23:41;99666.78;;;7.57;100.00
49813;BME280;35706;52.100;5.056;2022-11-23T04:24:41;99670.88;;;7.60;100.00
49813;BME280;35706;52.100;5.056;2022-11-23T04:25:41;99664.69;;;7.61;100.00
49813;BME280;35706;52.100;5.056;2022-11-23T04:26:42;99667.19;;;7.62;100.00
49813;BME280;35706;52.100;5.056;2022-11-23T04:27:42;99668.13;;;7.61;100.00
49813;BME280;35706;52.100;5.056;2022-11-23T04:28:42;99664.47;;;7.54;100.00
49813;BME280;35706;52.100;5.056;2022-11-23T04:29:43;99676.56;;;7.55;100.00
49813;BME280;35706;52.100;5.056;2022-11-23T04:30:43;99665.53;;;7.61;100.00
49813;BME280;35706;52.100;5.056;2022-11-23T04:31:43;99666.78;;;7.57;100.00
49813;BME280;35706;52.100;5.056;2022-11-23T04:32:44;99667.47;;;7.59;100.00
49813;BME280;35706;52.100;5.056;2022-11-23T04:33:44;99663.72;;;7.62;100.00
49813;BME280;35706;52.100;5.056;2022-11-23T04:34:45;99669.63;;;7.64;100.00
49813;BME280;35706;52.100;5.056;2022-11-23T04:35:45;99675.03;;;7.62;100.00
49813;BME280;35706;52.100;5.056;2022-11-23T04:36:45;99676.78;;;7.62;100.00
49813;BME280;35706;52.100;5.056;2022-11-23T04:37:45;99671.56;;;7.62;100.00
49813;BME280;35706;52.100;5.056;2022-11-23T04:38:46;99679.03;;;7.57;100.00
49813;BME280;35706;52.100;5.056;2022-11-23T04:39:46;99666.19;;;7.63;100.00
49813;BME280;35706;52.100;5.056;2022-11-23T04:40:46;99663.88;;;7.60;100.00
49813;BME280;35706;52.100;5.056;2022-11-23T04:41:48;99672.78;;;7.67;100.00
49813;BME280;35706;52.100;5.056;2022-11-23T04:42:48;99666.50;;;7.60;100.00
49813;BME280;35706;52.100;5.056;2022-11-23T04:43:49;99665.66;;;7.60;100.00
49813;BME280;35706;52.100;5.056;2022-11-23T04:44:49;99665.66;;;7.60;100.00
49813;BME280;35706;52.100;5.056;2022-11-23T04:45:49;99672.53;;;7.61;100.00
49813;BME280;35706;52.100;5.056;2022-11-23T04:46:49;99665.97;;;7.57;100.00
49813;BME280;35706;52.100;5.056;2022-11-23T04:47:50;99662.91;;;7.61;100.00
49813;BME280;35706;52.100;5.056;2022-11-23T04:48:50;99663.81;;;7.70;100.00
49813;BME280;35706;52.100;5.056;2022-11-23T04:49:50;99667.56;;;7.67;100.00
49813;BME280;35706;52.100;5.056;2022-11-23T04:50:50;99673.47;;;7.69;100.00
49813;BME280;35706;52.100;5.056;2022-11-23T04:51:51;99668.00;;;7.63;100.00
49813;BME280;35706;52.100;5.056;2022-11-23T04:52:51;99661.94;;;7.62;100.00
49813;BME280;35706;52.100;5.056;2022-11-23T04:53:51;99676.06;;;7.69;100.00
49813;BME280;35706;52.100;5.056;2022-11-23T04:54:52;99670.72;;;7.71;100.00
49813;BME280;35706;52.100;5.056;2022-11-23T04:55:52;99661.44;;;7.77;100.00
49813;BME280;35706;52.100;5.056;2022-11-23T04:56:52;99666.44;;;7.70;100.00
49813;BME280;35706;52.100;5.056;2022-11-23T04:57:53;99663.13;;;7.68;100.00
49813;BME280;35706;52.100;5.056;2022-11-23T04:58:53;99662.63;;;7.64;100.00
49813;BME280;35706;52.100;5.056;2022-11-23T04:59:53;99662.78;;;7.63;100.00
49813;BME280;35706;52.100;5.056;2022-11-23T05:00:54;99662.28;;;7.77;100.00
49813;BME280;35706;52.100;5.056;2022-11-23T05:01:54;99659.25;;;7.72;100.00
49813;BME280;35706;52.100;5.056;2022-11-23T05:02:57;99663.69;;;7.71;100.00
49813;BME280;35706;52.100;5.056;2022-11-23T05:03:58;99664.44;;;7.82;100.00
49813;BME280;35706;52.100;5.056;2022-11-23T05:04:58;99663.38;;;7.74;100.00
49813;BME280;35706;52.100;5.056;2022-11-23T05:05:58;99664.34;;;7.73;100.00
49813;BME280;35706;52.100;5.056;2022-11-23T05:06:59;99664.94;;;7.67;100.00
49813;BME280;35706;52.100;5.056;2022-11-23T05:07:59;99658.91;;;7.67;100.00
49813;BME280;35706;52.100;5.056;2022-11-23T05:08:59;99665.53;;;7.61;100.00
49813;BME280;35706;52.100;5.056;2022-11-23T05:10:00;99661.94;;;7.62;100.00
49813;BME280;35706;52.100;5.056;2022-11-23T05:11:00;99657.66;;;7.61;100.00
49813;BME280;35706;52.100;5.056;2022-11-23T05:12:00;99667.41;;;7.69;100.00
49813;BME280;35706;52.100;5.056;2022-11-23T05:13:00;99672.09;;;7.65;100.00
49813;BME280;35706;52.100;5.056;2022-11-23T05:14:01;99666.59;;;7.68;100.00
49813;BME280;35706;52.100;5.056;2022-11-23T05:15:03;99673.78;;;7.66;100.00
49813;BME280;35706;52.100;5.056;2022-11-23T05:16:04;99663.44;;;7.65;100.00
49813;BME280;35706;52.100;5.056;2022-11-23T05:17:04;99664.94;;;7.67;100.00
49813;BME280;35706;52.100;5.056;2022-11-23T05:18:05;99664.34;;;7.73;100.00
49813;BME280;35706;52.100;5.056;2022-11-23T05:19:06;99664.13;;;7.67;100.00
49813;BME280;35706;52.100;5.056;2022-11-23T05:20:07;99668.22;;;7.69;100.00
49813;BME280;35706;52.100;5.056;2022-11-23T05:21:07;99667.56;;;7.67;100.00
49813;BME280;35706;52.100;5.056;2022-11-23T05:22:07;99661.97;;;7.80;100.00
49813;BME280;35706;52.100;5.056;2022-11-23T05:23:08;99658.41;;;7.81;100.00
49813;BME280;35706;52.100;5.056;2022-11-23T05:24:09;99665.72;;;7.78;100.00
49813;BME280;35706;52.100;5.056;2022-11-23T05:25:09;99665.16;;;7.74;100.00
49813;BME280;35706;52.100;5.056;2022-11-23T05:26:09;99665.84;;;7.76;100.00
49813;BME280;35706;52.100;5.056;2022-11-23T05:27:10;99662.88;;;7.71;100.00
49813;BME280;35706;52.100;5.056;2022-11-23T05:28:14;99672.44;;;7.80;100.00
49813;BME280;35706;52.100;5.056;2022-11-23T05:29:14;99672.56;;;7.79;100.00
49813;BME280;35706;52.100;5.056;2022-11-23T05:30:15;99672.19;;;7.73;100.00
49813;BME280;35706;52.100;5.056;2022-11-23T05:31:15;99672.56;;;7.79;100.00